createdAt,value
2018-10-17T00:00:20.002Z,35.40
2018-10-17T00:02:50.001Z,36.53
2018-10-17T00:05:20.188Z,38.30
2018-10-17T00:07:50.402Z,36.90
2018-10-17T00:10:20.771Z,40.20
2018-10-17T00:12:49.591Z,36.83
2018-10-17T00:15:18.401Z,40.27
2018-10-17T00:17:47.198Z,36.67
2018-10-17T00:20:16.279Z,32.93
2018-10-17T00:22:45.410Z,36.73
2018-10-17T00:25:14.479Z,40.20
2018-10-17T00:27:43.305Z,36.10
2018-10-17T00:30:13.390Z,42.27
2018-10-17T00:32:42.451Z,51.47
2018-10-17T00:35:11.404Z,30.40
2018-10-17T00:37:40.756Z,35.33
2018-10-17T00:40:09.663Z,35.93
2018-10-17T00:42:38.824Z,35.20
2018-10-17T00:45:08.654Z,34.70
2018-10-17T00:47:37.569Z,37.73
2018-10-17T00:50:06.426Z,35.67
2018-10-17T00:52:35.251Z,40.17
2018-10-17T00:55:04.134Z,39.27
2018-10-17T00:57:33.633Z,44.40
2018-10-17T01:00:02.443Z,41.33
2018-10-17T01:02:31.383Z,46.73
2018-10-17T01:05:00.275Z,34.13
2018-10-17T01:07:29.179Z,35.47
2018-10-17T01:09:58.025Z,33.03
2018-10-17T01:12:26.816Z,38.83
2018-10-17T01:14:55.663Z,47.13
2018-10-17T01:17:24.425Z,43.97
2018-10-17T01:19:53.242Z,35.17
2018-10-17T01:22:22.403Z,35.43
2018-10-17T01:24:51.216Z,40.87
2018-10-17T01:27:20.016Z,43.13
2018-10-17T01:29:49.051Z,35.93
2018-10-17T01:32:17.859Z,39.27
2018-10-17T01:34:47.093Z,47.00
2018-10-17T01:37:15.922Z,35.40
2018-10-17T01:39:44.677Z,35.00
2018-10-17T01:42:13.492Z,41.33
2018-10-17T01:44:42.334Z,36.70
2018-10-17T01:47:11.235Z,37.77
2018-10-17T01:49:40.358Z,38.23
2018-10-17T01:52:09.383Z,37.80
2018-10-17T01:54:38.462Z,40.57
2018-10-17T01:57:07.494Z,39.00
2018-10-17T01:59:36.429Z,36.97
2018-10-17T02:02:05.429Z,38.67
2018-10-17T02:04:34.267Z,48.50
2018-10-17T02:07:03.640Z,40.17
2018-10-17T02:09:32.403Z,48.40
2018-10-17T02:12:01.841Z,41.30
2018-10-17T02:14:30.647Z,41.50
2018-10-17T02:16:59.819Z,41.43
2018-10-17T02:19:28.787Z,40.23
2018-10-17T02:21:57.624Z,39.50
2018-10-17T02:24:26.408Z,51.53
2018-10-17T02:26:55.509Z,34.70
2018-10-17T02:29:24.555Z,35.10
2018-10-17T02:31:53.371Z,40.00
2018-10-17T02:34:22.224Z,45.10
2018-10-17T02:36:51.095Z,41.70
2018-10-17T02:39:20.607Z,41.40
2018-10-17T02:41:49.890Z,42.30
2018-10-17T02:44:19.462Z,37.70
2018-10-17T02:46:48.494Z,35.80
2018-10-17T02:49:17.777Z,35.53
2018-10-17T02:51:46.576Z,36.40
2018-10-17T02:54:15.467Z,33.43
2018-10-17T02:56:44.268Z,34.77
2018-10-17T02:59:13.572Z,37.17
2018-10-17T03:01:42.614Z,46.93
2018-10-17T03:04:11.752Z,43.13
2018-10-17T03:06:40.903Z,39.10
2018-10-17T03:09:10.060Z,49.47
2018-10-17T03:11:39.120Z,45.30
2018-10-17T03:14:07.918Z,38.80
2018-10-17T03:16:36.906Z,38.00
2018-10-17T03:19:06.004Z,44.20
2018-10-17T03:21:35.518Z,44.80
2018-10-17T03:24:04.517Z,41.90
2018-10-17T03:26:33.311Z,38.73
2018-10-17T03:29:02.451Z,43.60
2018-10-17T03:31:31.469Z,44.27
2018-10-17T03:34:00.244Z,40.20
2018-10-17T03:36:29.648Z,46.67
2018-10-17T03:38:58.731Z,38.47
2018-10-17T03:41:27.889Z,41.90
2018-10-17T03:43:59.782Z,45.30
2018-10-17T03:46:29.692Z,43.23
2018-10-17T03:48:58.499Z,39.60
2018-10-17T03:51:27.387Z,50.53
2018-10-17T03:53:56.239Z,48.80
2018-10-17T03:56:25.067Z,44.67
2018-10-17T03:58:53.839Z,48.00
2018-10-17T04:01:22.622Z,47.50
2018-10-17T04:03:51.777Z,42.90
2018-10-17T04:06:21.438Z,38.53
2018-10-17T04:08:50.501Z,54.10
2018-10-17T04:11:19.304Z,44.70
2018-10-17T04:13:48.413Z,40.63
2018-10-17T04:16:17.593Z,43.03
2018-10-17T04:18:46.723Z,41.73
2018-10-17T04:21:15.624Z,43.67
2018-10-17T04:23:44.759Z,47.60
2018-10-17T04:26:13.613Z,46.87
2018-10-17T04:28:42.609Z,46.23
2018-10-17T04:31:11.470Z,41.83
2018-10-17T04:33:40.574Z,41.90
2018-10-17T04:36:09.749Z,55.20
2018-10-17T04:38:38.819Z,49.00
2018-10-17T04:41:07.758Z,50.43
2018-10-17T04:43:37.206Z,46.23
2018-10-17T04:46:06.668Z,44.30
2018-10-17T04:48:36.550Z,50.00
2018-10-17T04:51:05.709Z,51.60
2018-10-17T04:53:34.692Z,48.87
2018-10-17T04:56:03.926Z,51.67
2018-10-17T04:58:32.692Z,50.73
2018-10-17T05:01:01.840Z,47.87
2018-10-17T05:03:30.884Z,47.00
2018-10-17T05:05:59.715Z,45.43
2018-10-17T05:08:28.837Z,51.23
2018-10-17T05:10:57.652Z,60.17
2018-10-17T05:13:26.785Z,49.07
2018-10-17T05:15:55.496Z,48.30
2018-10-17T05:18:24.278Z,52.07
2018-10-17T05:20:53.028Z,52.23
2018-10-17T05:23:22.143Z,57.37
2018-10-17T05:25:51.012Z,45.30
2018-10-17T05:28:20.254Z,55.50
2018-10-17T05:30:49.127Z,49.07
2018-10-17T05:33:17.890Z,56.33
2018-10-17T05:35:46.664Z,55.87
2018-10-17T05:38:15.853Z,49.63
2018-10-17T05:40:45.600Z,55.27
2018-10-17T05:43:14.506Z,53.20
2018-10-17T05:45:43.564Z,50.10
2018-10-17T05:48:12.400Z,51.37
2018-10-17T05:50:41.200Z,56.33
2018-10-17T05:53:10.433Z,64.77
2018-10-17T05:55:39.245Z,54.63
2018-10-17T05:58:08.546Z,54.50
2018-10-17T06:00:37.793Z,55.77
2018-10-17T06:03:07.325Z,54.37
2018-10-17T06:05:36.099Z,62.40
2018-10-17T06:08:05.479Z,57.17
2018-10-17T06:10:34.346Z,62.27
2018-10-17T06:13:03.499Z,66.80
2018-10-17T06:15:32.525Z,57.37
2018-10-17T06:18:01.278Z,56.63
2018-10-17T06:20:30.082Z,59.93
2018-10-17T06:22:58.976Z,57.17
2018-10-17T06:25:28.043Z,64.23
2018-10-17T06:27:56.847Z,58.33
2018-10-17T06:30:26.058Z,79.70
2018-10-17T06:32:54.932Z,53.93
2018-10-17T06:35:23.810Z,58.97
2018-10-17T06:37:52.769Z,60.83
2018-10-17T06:40:22.507Z,57.20
2018-10-17T06:42:51.575Z,66.03
2018-10-17T06:45:21.108Z,62.50
2018-10-17T06:47:50.106Z,65.87
2018-10-17T06:50:19.258Z,60.80
2018-10-17T06:52:48.481Z,59.73
2018-10-17T06:55:17.377Z,66.83
2018-10-17T06:57:46.332Z,63.07
2018-10-17T07:00:15.448Z,66.23
2018-10-17T07:02:44.538Z,54.07
2018-10-17T07:05:13.577Z,60.80
2018-10-17T07:07:42.348Z,63.67
2018-10-17T07:10:11.748Z,61.20
2018-10-17T07:12:40.536Z,53.80
2018-10-17T07:15:09.362Z,53.40
2018-10-17T07:17:38.237Z,69.23
2018-10-17T07:20:08.257Z,58.07
2018-10-17T07:22:37.710Z,55.10
2018-10-17T07:25:06.812Z,51.67
2018-10-17T07:27:35.599Z,63.67
2018-10-17T07:30:05.340Z,58.17
2018-10-17T07:32:34.450Z,53.53
2018-10-17T07:35:03.245Z,47.30
2018-10-17T07:37:32.125Z,55.60
2018-10-17T07:40:01.159Z,52.33
2018-10-17T07:42:30.084Z,56.30
2018-10-17T07:44:58.854Z,58.00
2018-10-17T07:47:27.670Z,55.40
2018-10-17T07:49:56.421Z,51.80
2018-10-17T07:52:25.678Z,53.63
2018-10-17T07:54:54.473Z,59.27
2018-10-17T07:57:23.830Z,54.97
2018-10-17T07:59:53.229Z,61.37
2018-10-17T08:02:22.227Z,59.73
2018-10-17T08:04:51.308Z,60.87
2018-10-17T08:07:20.421Z,54.27
2018-10-17T08:09:49.297Z,75.20
2018-10-17T08:12:18.267Z,59.30
2018-10-17T08:14:47.362Z,65.40
2018-10-17T08:17:16.245Z,62.27
2018-10-17T08:19:45.103Z,63.93
2018-10-17T08:22:14.250Z,57.00
2018-10-17T08:24:43.082Z,66.67
2018-10-17T08:27:12.430Z,52.87
2018-10-17T08:29:41.958Z,56.80
2018-10-17T08:32:11.090Z,56.97
2018-10-17T08:34:39.926Z,58.57
2018-10-17T08:37:09.118Z,61.70
2018-10-17T08:39:37.702Z,85.63
2018-10-17T08:42:07.171Z,59.90
2018-10-17T08:44:35.996Z,57.90
2018-10-17T08:47:05.588Z,60.03
2018-10-17T08:49:34.637Z,63.63
2018-10-17T08:52:03.501Z,56.97
2018-10-17T08:54:32.656Z,64.17
2018-10-17T08:57:01.517Z,56.03
2018-10-17T08:59:30.447Z,69.17
2018-10-17T09:01:59.360Z,62.90
2018-10-17T09:04:28.387Z,60.30
2018-10-17T09:06:57.609Z,62.70
2018-10-17T09:09:26.776Z,78.23
2018-10-17T09:11:56.086Z,64.80
2018-10-17T09:14:24.929Z,76.17
2018-10-17T09:16:53.759Z,66.30
2018-10-17T09:19:22.590Z,61.73
2018-10-17T09:21:51.686Z,55.73
2018-10-17T09:24:20.500Z,66.60
2018-10-17T09:26:49.286Z,58.00
2018-10-17T09:29:18.565Z,68.67
2018-10-17T09:31:47.414Z,59.47
2018-10-17T09:34:16.573Z,72.27
2018-10-17T09:36:45.777Z,74.40
2018-10-17T09:39:15.287Z,63.47
2018-10-17T09:41:44.058Z,71.90
2018-10-17T09:44:13.248Z,71.53
2018-10-17T09:46:42.374Z,82.43
2018-10-17T09:49:11.411Z,67.77
2018-10-17T09:51:40.246Z,74.07
2018-10-17T09:54:09.211Z,72.23
2018-10-17T09:56:38.057Z,80.03
2018-10-17T09:59:06.841Z,75.60
2018-10-17T10:01:41.240Z,70.67
2018-10-17T10:04:10.229Z,74.97
2018-10-17T10:06:39.435Z,85.90
2018-10-17T10:09:09.587Z,73.40
2018-10-17T10:11:38.506Z,70.87
2018-10-17T10:14:07.331Z,73.37
2018-10-17T10:16:36.470Z,61.97
2018-10-17T10:19:05.769Z,63.73
2018-10-17T10:21:35.020Z,83.10
2018-10-17T10:24:03.997Z,70.57
2018-10-17T10:26:32.808Z,72.43
2018-10-17T10:29:01.652Z,66.37
2018-10-17T10:31:30.514Z,75.83
2018-10-17T10:33:59.908Z,69.20
2018-10-17T10:36:29.254Z,77.40
2018-10-17T10:38:58.668Z,61.23
2018-10-17T10:41:27.485Z,60.17
2018-10-17T10:43:56.757Z,59.87
2018-10-17T10:46:25.574Z,62.13
2018-10-17T10:48:54.658Z,69.10
2018-10-17T10:51:23.871Z,63.60
2018-10-17T10:53:52.556Z,62.80
2018-10-17T10:56:21.304Z,62.90
2018-10-17T10:58:50.400Z,63.43
2018-10-17T11:01:19.452Z,72.50
2018-10-17T11:03:48.420Z,69.27
2018-10-17T11:06:17.240Z,71.53
2018-10-17T11:08:46.079Z,63.53
2018-10-17T11:11:14.970Z,63.07
2018-10-17T11:13:43.806Z,59.20
2018-10-17T11:16:18.918Z,75.03
2018-10-17T11:18:47.796Z,60.10
2018-10-17T11:21:16.751Z,56.60
2018-10-17T11:23:45.892Z,67.20
2018-10-17T11:26:14.713Z,61.03
2018-10-17T11:28:43.491Z,57.27
2018-10-17T11:31:12.731Z,63.63
2018-10-17T11:33:41.542Z,64.17
2018-10-17T11:36:10.546Z,62.43
2018-10-17T11:38:40.030Z,53.50
2018-10-17T11:41:08.873Z,62.30
2018-10-17T11:43:37.587Z,67.43
2018-10-17T11:46:07.372Z,64.10
2018-10-17T11:48:36.368Z,58.43
2018-10-17T11:51:05.411Z,52.33
2018-10-17T11:53:34.237Z,52.87
2018-10-17T11:56:03.395Z,49.53
2018-10-17T11:58:32.447Z,55.50
2018-10-17T12:01:01.542Z,59.53
2018-10-17T12:03:30.848Z,65.17
2018-10-17T12:05:59.583Z,55.33
2018-10-17T12:08:28.341Z,54.20
2018-10-17T12:10:57.379Z,61.07
2018-10-17T12:13:26.991Z,59.30
2018-10-17T12:15:55.783Z,49.87
2018-10-17T12:18:24.673Z,53.37
2018-10-17T12:20:53.454Z,47.50
2018-10-17T12:23:22.424Z,53.70
2018-10-17T12:25:51.631Z,56.87
2018-10-17T12:28:20.993Z,56.37
2018-10-17T12:30:50.045Z,50.13
2018-10-17T12:33:19.187Z,61.00
2018-10-17T12:35:48.327Z,50.93
2018-10-17T12:38:17.161Z,50.77
2018-10-17T12:40:46.298Z,55.00
2018-10-17T12:43:15.359Z,58.70
2018-10-17T12:45:44.489Z,48.70
2018-10-17T12:48:13.250Z,64.83
2018-10-17T12:50:42.870Z,53.50
2018-10-17T12:53:12.293Z,48.07
2018-10-17T12:55:41.227Z,71.20
2018-10-17T12:58:10.503Z,54.70
2018-10-17T13:00:39.711Z,55.33
2018-10-17T13:03:09.214Z,59.57
2018-10-17T13:05:38.098Z,64.53
2018-10-17T13:08:07.246Z,52.87
2018-10-17T13:10:36.702Z,61.43
2018-10-17T13:13:05.631Z,51.83
2018-10-17T13:15:34.371Z,52.43
2018-10-17T13:18:03.886Z,56.07
2018-10-17T13:20:32.887Z,58.00
2018-10-17T13:23:02.201Z,52.53
2018-10-17T13:25:31.703Z,48.53
2018-10-17T13:28:00.672Z,58.37
2018-10-17T13:30:30.431Z,50.97
2018-10-17T13:32:59.458Z,55.90
2018-10-17T13:35:28.225Z,56.00
2018-10-17T13:37:57.363Z,52.60
2018-10-17T13:40:26.495Z,54.37
2018-10-17T13:42:55.323Z,48.27
2018-10-17T13:45:24.183Z,58.97
2018-10-17T13:47:52.899Z,47.27
2018-10-17T13:50:21.936Z,49.27
2018-10-17T13:52:50.831Z,45.83
2018-10-17T13:55:20.126Z,44.73
2018-10-17T13:57:48.998Z,42.50
2018-10-17T14:00:17.783Z,45.20
2018-10-17T14:02:47.063Z,53.10
2018-10-17T14:05:15.995Z,38.93
2018-10-17T14:07:45.179Z,46.47
2018-10-17T14:10:13.953Z,55.13
2018-10-17T14:12:42.764Z,43.73
2018-10-17T14:15:14.719Z,50.77
2018-10-17T14:17:43.822Z,37.67
2018-10-17T14:20:12.612Z,37.00
2018-10-17T14:22:41.904Z,51.20
2018-10-17T14:25:10.723Z,39.07
2018-10-17T14:27:39.567Z,44.80
2018-10-17T14:30:09.354Z,38.53
2018-10-17T14:32:38.096Z,44.77
2018-10-17T14:35:10.503Z,43.67
2018-10-17T14:37:40.110Z,38.03
2018-10-17T14:40:08.906Z,35.70
2018-10-17T14:42:37.700Z,40.73
2018-10-17T14:45:08.609Z,43.70
2018-10-17T14:47:37.613Z,44.80
2018-10-17T14:50:06.415Z,33.13
2018-10-17T14:52:35.431Z,42.83
2018-10-17T14:55:04.926Z,37.37
2018-10-17T14:57:33.968Z,34.53
2018-10-17T15:00:03.356Z,39.77
2018-10-17T15:02:32.277Z,32.67
2018-10-17T15:05:01.133Z,35.00
2018-10-17T15:07:33.004Z,41.80
2018-10-17T15:10:02.726Z,32.77
2018-10-17T15:12:32.113Z,29.83
2018-10-17T15:15:01.110Z,33.80
2018-10-17T15:17:30.359Z,34.20
2018-10-17T15:19:59.789Z,32.30
2018-10-17T15:22:28.744Z,31.73
2018-10-17T15:24:57.535Z,28.67
2018-10-17T15:27:26.349Z,33.13
2018-10-17T15:29:56.449Z,26.87
2018-10-17T15:32:27.374Z,35.40
2018-10-17T15:34:56.772Z,33.43
2018-10-17T15:37:26.585Z,34.10
2018-10-17T15:39:55.987Z,30.13
2018-10-17T15:42:25.279Z,27.77
2018-10-17T15:44:54.177Z,34.57
2018-10-17T15:47:23.353Z,24.50
2018-10-17T15:49:52.705Z,32.30
2018-10-17T15:52:21.603Z,38.13
2018-10-17T15:54:54.273Z,27.63
2018-10-17T15:57:23.613Z,30.37
2018-10-17T15:59:52.512Z,28.20
2018-10-17T16:02:22.169Z,33.70
2018-10-17T16:04:51.073Z,26.37
2018-10-17T16:07:21.066Z,31.80
2018-10-17T16:09:50.244Z,26.60
2018-10-17T16:12:19.031Z,20.13
2018-10-17T16:14:47.927Z,27.93
2018-10-17T16:17:16.746Z,24.90
2018-10-17T16:19:46.010Z,24.53
2018-10-17T16:22:14.886Z,22.37
2018-10-17T16:24:43.985Z,23.30
2018-10-17T16:27:12.766Z,22.70
2018-10-17T16:29:41.614Z,21.07
2018-10-17T16:32:10.477Z,24.67
2018-10-17T16:34:39.273Z,21.27
2018-10-17T16:37:08.778Z,21.90
2018-10-17T16:39:37.571Z,22.33
2018-10-17T16:42:06.659Z,29.17
2018-10-17T16:44:35.553Z,21.33
2018-10-17T16:47:04.326Z,17.47
2018-10-17T16:49:33.569Z,19.70
2018-10-17T16:52:02.340Z,19.10
2018-10-17T16:54:31.526Z,16.67
2018-10-17T16:57:00.485Z,19.70
2018-10-17T16:59:29.614Z,24.13
2018-10-17T17:01:58.394Z,21.30
2018-10-17T17:04:27.244Z,19.80
2018-10-17T17:06:56.067Z,13.03
2018-10-17T17:09:24.891Z,16.80
2018-10-17T17:11:53.944Z,26.43
2018-10-17T17:14:22.819Z,15.67
2018-10-17T17:16:51.680Z,15.00
2018-10-17T17:19:21.453Z,23.90
2018-10-17T17:21:50.316Z,19.17
2018-10-17T17:24:20.665Z,15.93
2018-10-17T17:26:49.775Z,13.57
2018-10-17T17:29:19.009Z,28.37
2018-10-17T17:31:47.848Z,20.80
2018-10-17T17:34:17.158Z,27.50
2018-10-17T17:36:46.042Z,32.07
2018-10-17T17:39:14.865Z,17.77
2018-10-17T17:41:43.828Z,19.77
2018-10-17T17:44:12.599Z,17.13
2018-10-17T17:46:41.490Z,15.50
2018-10-17T17:49:10.540Z,16.03
2018-10-17T17:51:39.377Z,21.83
2018-10-17T17:54:08.191Z,15.60
2018-10-17T17:56:36.934Z,17.30
2018-10-17T17:59:05.851Z,17.23
2018-10-17T18:01:34.739Z,13.67
2018-10-17T18:04:03.905Z,23.30
2018-10-17T18:06:32.819Z,21.80
2018-10-17T18:09:02.057Z,17.87
2018-10-17T18:11:30.825Z,17.93
2018-10-17T18:13:59.971Z,21.57
2018-10-17T18:16:29.034Z,30.07
2018-10-17T18:18:58.022Z,20.40
2018-10-17T18:21:26.826Z,15.43
2018-10-17T18:23:55.922Z,16.53
2018-10-17T18:26:24.992Z,17.53
2018-10-17T18:28:54.242Z,16.03
2018-10-17T18:31:23.401Z,16.83
2018-10-17T18:33:52.255Z,23.67
2018-10-17T18:36:21.319Z,29.40
2018-10-17T18:38:50.114Z,15.43
2018-10-17T18:41:19.339Z,24.77
2018-10-17T18:43:48.247Z,17.30
2018-10-17T18:46:17.231Z,20.53
2018-10-17T18:48:46.243Z,25.77
2018-10-17T18:51:15.164Z,21.97
2018-10-17T18:53:44.930Z,21.00
2018-10-17T18:56:13.754Z,28.63
2018-10-17T18:58:43.283Z,23.13
2018-10-17T19:01:12.350Z,19.03
2018-10-17T19:03:41.297Z,20.20
2018-10-17T19:06:10.058Z,25.93
2018-10-17T19:08:39.172Z,20.03
2018-10-17T19:11:08.671Z,24.83
2018-10-17T19:13:37.446Z,21.70
2018-10-17T19:16:07.012Z,25.83
2018-10-17T19:18:35.783Z,21.00
2018-10-17T19:21:04.958Z,19.30
2018-10-17T19:23:33.671Z,21.37
2018-10-17T19:26:02.672Z,23.00
2018-10-17T19:28:31.814Z,19.20
2018-10-17T19:31:00.618Z,17.60
2018-10-17T19:33:29.374Z,16.80
2018-10-17T19:35:58.237Z,24.10
2018-10-17T19:38:27.357Z,20.73
2018-10-17T19:40:56.598Z,17.90
2018-10-17T19:43:25.353Z,21.50
2018-10-17T19:45:54.744Z,20.33
2018-10-17T19:48:23.550Z,20.63
2018-10-17T19:50:52.657Z,20.60
2018-10-17T19:53:22.029Z,22.67
2018-10-17T19:55:50.945Z,25.80
2018-10-17T19:58:20.317Z,22.40
2018-10-17T20:00:49.172Z,22.63
2018-10-17T20:03:17.947Z,29.50
2018-10-17T20:05:47.331Z,34.43
2018-10-17T20:08:16.283Z,22.70
2018-10-17T20:10:45.737Z,21.13
2018-10-17T20:13:14.582Z,26.80
2018-10-17T20:15:43.485Z,23.97
2018-10-17T20:18:13.307Z,22.27
2018-10-17T20:20:42.362Z,24.03
2018-10-17T20:23:11.361Z,19.00
2018-10-17T20:25:40.188Z,27.10
2018-10-17T20:28:09.314Z,21.73
2018-10-17T20:30:38.162Z,21.03
2018-10-17T20:33:07.339Z,23.77
2018-10-17T20:35:36.357Z,18.97
2018-10-17T20:38:05.815Z,24.20
2018-10-17T20:40:35.214Z,20.90
2018-10-17T20:43:04.667Z,19.37
2018-10-17T20:45:33.495Z,22.40
2018-10-17T20:48:02.276Z,24.00
2018-10-17T20:50:31.547Z,20.90
2018-10-17T20:53:00.630Z,17.10
2018-10-17T20:55:29.507Z,22.17
2018-10-17T20:57:59.818Z,25.43
2018-10-17T21:00:28.958Z,21.10
2018-10-17T21:02:58.069Z,26.73
2018-10-17T21:05:27.163Z,17.07
2018-10-17T21:07:56.056Z,19.30
2018-10-17T21:10:24.834Z,24.07
2018-10-17T21:12:53.628Z,18.33
2018-10-17T21:15:22.515Z,34.20
2018-10-17T21:17:51.553Z,19.33
2018-10-17T21:20:20.712Z,26.60
2018-10-17T21:22:49.630Z,21.53
2018-10-17T21:25:18.765Z,17.30
2018-10-17T21:27:48.201Z,16.63
2018-10-17T21:30:17.323Z,15.40
2018-10-17T21:32:46.166Z,18.10
2018-10-17T21:35:14.980Z,16.60
2018-10-17T21:37:44.291Z,20.50
2018-10-17T21:40:13.676Z,15.83
2018-10-17T21:42:44.046Z,20.40
2018-10-17T21:45:13.376Z,16.00
2018-10-17T21:47:42.910Z,12.30
2018-10-17T21:50:11.987Z,14.23
2018-10-17T21:52:41.850Z,10.90
2018-10-17T21:55:10.784Z,13.77
2018-10-17T21:57:40.248Z,12.20
2018-10-17T22:00:10.478Z,12.07
2018-10-17T22:02:39.899Z,8.23
2018-10-17T22:05:10.253Z,14.03
2018-10-17T22:07:39.528Z,18.27
2018-10-17T22:10:09.525Z,11.67
2018-10-17T22:12:38.635Z,18.43
2018-10-17T22:15:09.304Z,17.60
2018-10-17T22:17:43.870Z,10.63
2018-10-17T22:20:13.835Z,11.30
2018-10-17T22:22:42.923Z,11.57
2018-10-17T22:25:11.802Z,9.27
2018-10-17T22:27:40.744Z,11.63
2018-10-17T22:30:09.691Z,15.80
2018-10-17T22:32:38.734Z,12.13
2018-10-17T22:35:07.683Z,13.20
2018-10-17T22:37:36.935Z,14.40
2018-10-17T22:40:05.830Z,14.00
2018-10-17T22:42:34.803Z,15.70
2018-10-17T22:45:04.695Z,13.83
2018-10-17T22:47:33.549Z,19.80
2018-10-17T22:50:03.173Z,14.33
2018-10-17T22:52:32.447Z,15.07
2018-10-17T22:55:01.391Z,12.93
2018-10-17T22:57:30.251Z,10.30
2018-10-17T22:59:59.095Z,17.40
2018-10-17T23:02:28.017Z,20.50
2018-10-17T23:04:57.340Z,12.07
2018-10-17T23:07:26.264Z,16.70
2018-10-17T23:09:55.195Z,10.20
2018-10-17T23:12:24.389Z,19.03
2018-10-17T23:14:53.209Z,10.77
2018-10-17T23:17:22.252Z,20.17
2018-10-17T23:19:52.348Z,18.27
2018-10-17T23:22:21.619Z,13.03
2018-10-17T23:24:51.253Z,19.37
2018-10-17T23:27:20.405Z,20.77
2018-10-17T23:29:49.220Z,17.30
2018-10-17T23:32:18.315Z,14.20
2018-10-17T23:34:47.355Z,14.53
2018-10-17T23:37:16.558Z,18.07
2018-10-17T23:39:45.603Z,14.33
2018-10-17T23:42:15.051Z,14.10
2018-10-17T23:44:44.432Z,14.80
2018-10-17T23:47:13.921Z,16.17
2018-10-17T23:49:42.976Z,18.30
2018-10-17T23:52:11.842Z,19.90
2018-10-17T23:54:40.630Z,13.90
2018-10-17T23:57:09.453Z,21.37
2018-10-17T23:59:38.735Z,17.60
